Thomas Jesson.

Thomas Jesson.

Voir toute les actualités.

Patrouille Sparflex - figure aérienne - Fly and Fun
Patrouille Sparflex - figure aérienne - Fly and Fun
METAR :

LFQA 171830Z AUTO 35003KT CAVOK 27/21 Q1011


vue en direct sur l'aérodrome
mentions légales politique de confidentialité
Cochet Concept
cx